Time;durP1;ratioP1;P1;durP2;ratioP2;P2;SDS_P1;SDS_P2;PMS_P1;PMS_P2;Temp;Humidity;BMP_temperature;BMP_pressure;BME280_temperature;BME280_humidity;BME280_pressure;Samples;Min_cycle;Max_cycle;Signal;HPM_P1;HPM_P2
2022/05/22 00:02:10;;;;;;;8.07;4.30;;;11.80;99.90;;;;;;5046246;28;20200;-64
2022/05/22 00:04:39;;;;;;;6.27;3.70;;;11.70;99.90;;;;;;5042793;28;20212;-64
2022/05/22 00:07:08;;;;;;;7.90;4.03;;;11.70;99.90;;;;;;5044368;28;20259;-64
2022/05/22 00:09:37;;;;;;;8.13;3.97;;;11.60;99.90;;;;;;5047093;28;20208;-64
2022/05/22 00:12:10;;;;;;;9.70;4.17;;;11.60;99.90;;;;;;5045494;28;20197;-64
2022/05/22 00:14:38;;;;;;;9.90;4.13;;;11.60;99.90;;;;;;5040389;28;20677;-64
2022/05/22 00:17:08;;;;;;;7.77;4.07;;;11.60;99.90;;;;;;5046391;28;20204;-64
2022/05/22 00:19:38;;;;;;;8.40;4.17;;;11.60;99.90;;;;;;5044845;28;20232;-63
2022/05/22 00:22:08;;;;;;;5.23;3.90;;;11.50;99.90;;;;;;5048201;28;20204;-63
2022/05/22 00:24:37;;;;;;;10.70;4.53;;;11.50;99.90;;;;;;5044097;28;20841;-63
2022/05/22 00:27:07;;;;;;;7.57;4.43;;;11.40;99.90;;;;;;5045615;28;20205;-63
2022/05/22 00:29:37;;;;;;;5.40;4.47;;;11.40;99.90;;;;;;5047058;28;20211;-63
2022/05/22 00:32:06;;;;;;;10.33;4.50;;;11.40;99.90;;;;;;5044918;28;20219;-63
2022/05/22 00:34:35;;;;;;;7.73;4.37;;;11.40;99.90;;;;;;5036725;28;20436;-63
2022/05/22 00:37:04;;;;;;;7.17;4.53;;;11.40;99.90;;;;;;5046645;28;20327;-63
2022/05/22 00:39:33;;;;;;;13.30;5.13;;;11.40;99.90;;;;;;5044042;28;20247;-63
2022/05/22 00:42:02;;;;;;;8.30;4.57;;;11.40;99.90;;;;;;5045266;28;20224;-63
2022/05/22 00:44:32;;;;;;;9.53;4.57;;;11.30;99.90;;;;;;5047210;28;20215;-63
2022/05/22 00:47:00;;;;;;;12.23;4.70;;;11.30;99.90;;;;;;5043418;28;20197;-64
2022/05/22 00:49:33;;;;;;;9.63;4.70;;;11.30;99.90;;;;;;5047895;28;20668;-63
2022/05/22 00:52:06;;;;;;;6.33;4.70;;;11.20;99.90;;;;;;5048704;28;20231;-64
2022/05/22 00:54:41;;;;;;;9.23;5.00;;;11.20;99.90;;;;;;5047749;28;20220;-63
2022/05/22 00:57:14;;;;;;;10.03;4.87;;;11.20;99.90;;;;;;5042081;28;20204;-63
2022/05/22 00:59:49;;;;;;;14.93;4.93;;;11.20;99.90;;;;;;5043604;28;20223;-63
2022/05/22 01:02:17;;;;;;;12.33;4.67;;;11.10;99.90;;;;;;5046994;28;20212;-63
2022/05/22 01:04:49;;;;;;;11.03;4.70;;;11.10;99.90;;;;;;5034683;28;20190;-63
2022/05/22 01:07:18;;;;;;;11.13;5.70;;;11.10;99.90;;;;;;5037035;28;20201;-63
2022/05/22 01:09:48;;;;;;;7.17;5.43;;;11.10;99.90;;;;;;5040598;28;20211;-63
2022/05/22 01:12:19;;;;;;;9.10;5.10;;;11.10;99.90;;;;;;5043877;28;20204;-64
2022/05/22 01:14:51;;;;;;;12.37;5.60;;;11.00;99.90;;;;;;5043199;28;20211;-63
2022/05/22 01:17:20;;;;;;;7.97;4.63;;;11.00;99.90;;;;;;5045651;28;20299;-64
2022/05/22 01:19:56;;;;;;;8.57;5.43;;;11.00;99.90;;;;;;5047334;28;20188;-63
2022/05/22 01:22:27;;;;;;;10.40;5.07;;;11.00;99.90;;;;;;5042000;28;20220;-63
2022/05/22 01:24:56;;;;;;;12.00;4.73;;;11.00;99.90;;;;;;5048054;28;20196;-63
2022/05/22 01:27:26;;;;;;;6.67;5.00;;;10.90;99.90;;;;;;5035610;28;20196;-64
2022/05/22 01:30:07;;;;;;;7.30;4.80;;;10.80;99.90;;;;;;5043287;28;20228;-64
2022/05/22 01:32:36;;;;;;;7.67;4.90;;;10.80;99.90;;;;;;5048538;28;20197;-64
2022/05/22 01:35:05;;;;;;;8.23;5.13;;;10.80;99.90;;;;;;5042154;28;20236;-63
2022/05/22 01:37:35;;;;;;;5.80;4.87;;;10.80;99.90;;;;;;5037887;28;20263;-64
2022/05/22 01:40:05;;;;;;;12.27;5.93;;;10.80;99.90;;;;;;5041143;28;20201;-63
2022/05/22 01:42:34;;;;;;;5.90;5.30;;;10.80;99.90;;;;;;5045457;28;20197;-63
2022/05/22 01:45:03;;;;;;;14.13;5.20;;;10.80;99.90;;;;;;5045812;28;20196;-63
2022/05/22 01:47:33;;;;;;;16.37;5.57;;;10.80;99.90;;;;;;5046135;28;20189;-63
2022/05/22 01:50:03;;;;;;;11.30;5.17;;;10.80;99.90;;;;;;5048198;28;20193;-63
2022/05/22 01:52:31;;;;;;;9.83;5.07;;;10.80;99.90;;;;;;5078724;28;20197;-63
2022/05/22 01:55:01;;;;;;;8.97;5.07;;;10.80;99.90;;;;;;5050633;28;20197;-63
2022/05/22 01:57:30;;;;;;;11.77;5.10;;;10.70;99.90;;;;;;5043186;28;20903;-63
2022/05/22 01:59:59;;;;;;;9.37;4.90;;;10.70;99.90;;;;;;5052519;28;20196;-64
2022/05/22 02:02:27;;;;;;;9.77;5.23;;;10.70;99.90;;;;;;5076124;28;20664;-63
2022/05/22 02:04:56;;;;;;;10.10;5.33;;;10.70;99.90;;;;;;5047742;28;20223;-63
2022/05/22 02:10:12;;;;;;;9.10;5.30;;;10.60;99.90;;;;;;5047647;28;20545;-64
2022/05/22 02:12:40;;;;;;;9.93;5.33;;;10.70;99.90;;;;;;5048155;28;20207;-64
2022/05/22 02:15:09;;;;;;;10.97;5.40;;;10.60;99.90;;;;;;5048566;28;20204;-63
2022/05/22 02:17:38;;;;;;;11.50;4.87;;;10.60;99.90;;;;;;5047417;28;20296;-63
2022/05/22 02:20:08;;;;;;;7.90;4.77;;;10.50;99.90;;;;;;5050494;28;20199;-63
2022/05/22 02:22:41;;;;;;;9.00;5.40;;;10.40;99.90;;;;;;5049185;28;20213;-64
2022/05/22 02:25:12;;;;;;;10.60;5.17;;;10.40;99.90;;;;;;5047754;28;20311;-64
2022/05/22 02:27:40;;;;;;;8.93;5.37;;;10.40;99.90;;;;;;5048116;28;22038;-63
2022/05/22 02:30:10;;;;;;;7.03;4.83;;;10.40;99.90;;;;;;5047238;28;20201;-63
2022/05/22 02:32:39;;;;;;;12.20;4.87;;;10.40;99.90;;;;;;5051570;28;20247;-63
2022/05/22 02:35:10;;;;;;;8.00;5.33;;;10.30;99.90;;;;;;5044667;28;20236;-63
2022/05/22 02:37:41;;;;;;;8.37;5.40;;;10.30;99.90;;;;;;5044690;28;20303;-63
2022/05/22 02:40:13;;;;;;;6.97;5.30;;;10.30;99.90;;;;;;5033805;28;20670;-63
2022/05/22 02:42:43;;;;;;;11.53;5.40;;;10.30;99.90;;;;;;5036330;28;20207;-63
2022/05/22 02:45:12;;;;;;;9.33;5.43;;;10.20;99.90;;;;;;5048848;28;20193;-63
2022/05/22 02:47:40;;;;;;;11.33;5.40;;;10.30;99.90;;;;;;5046958;28;20197;-63
2022/05/22 02:50:10;;;;;;;11.07;5.37;;;10.30;99.90;;;;;;5081553;28;20193;-64
2022/05/22 02:52:39;;;;;;;10.97;5.63;;;10.30;99.90;;;;;;5041613;28;20204;-63
2022/05/22 02:55:09;;;;;;;9.30;5.43;;;10.20;99.90;;;;;;5048063;28;20270;-63
2022/05/22 02:57:41;;;;;;;8.00;5.23;;;10.20;99.90;;;;;;5041899;28;20385;-64
2022/05/22 03:00:14;;;;;;;9.37;4.73;;;10.20;99.90;;;;;;5048390;28;20212;-63
2022/05/22 03:02:43;;;;;;;8.27;5.20;;;10.10;99.90;;;;;;5046723;28;20278;-64
2022/05/22 03:05:13;;;;;;;12.60;5.57;;;10.10;99.90;;;;;;5043761;28;20671;-64
2022/05/22 03:07:47;;;;;;;13.47;5.83;;;10.10;99.90;;;;;;5043764;28;20254;-64
2022/05/22 03:10:17;;;;;;;8.07;5.07;;;10.10;99.90;;;;;;5046014;28;20291;-64
2022/05/22 03:12:47;;;;;;;10.67;5.60;;;10.20;99.90;;;;;;5041665;28;21363;-64
2022/05/22 03:15:16;;;;;;;9.73;5.20;;;10.10;99.90;;;;;;5047521;28;20205;-63
2022/05/22 03:17:45;;;;;;;10.43;6.23;;;10.00;99.90;;;;;;5044372;28;20769;-64
2022/05/22 03:20:13;;;;;;;16.93;6.53;;;10.00;99.90;;;;;;5042416;28;20633;-64
2022/05/22 03:22:42;;;;;;;10.93;5.70;;;10.00;99.90;;;;;;5045271;28;20700;-64
2022/05/22 03:25:11;;;;;;;8.83;5.83;;;10.00;99.90;;;;;;5043631;28;20252;-64
2022/05/22 03:27:41;;;;;;;6.13;5.20;;;10.00;99.90;;;;;;5041869;28;20300;-64
2022/05/22 03:30:12;;;;;;;11.50;5.53;;;10.00;99.90;;;;;;5045762;28;20201;-64
2022/05/22 03:32:40;;;;;;;13.43;6.10;;;10.00;99.90;;;;;;5038634;28;20228;-64
2022/05/22 03:35:09;;;;;;;8.20;6.00;;;9.90;99.90;;;;;;5038348;28;20240;-64
2022/05/22 03:37:38;;;;;;;11.03;6.10;;;9.90;99.90;;;;;;5044470;28;20217;-64
2022/05/22 03:40:08;;;;;;;13.13;5.83;;;9.90;99.90;;;;;;5047378;28;20196;-64
2022/05/22 03:42:37;;;;;;;16.93;6.00;;;9.90;99.90;;;;;;5046849;28;20295;-63
2022/05/22 03:45:06;;;;;;;6.10;5.10;;;9.80;99.90;;;;;;5043416;28;20259;-64
2022/05/22 03:47:38;;;;;;;9.17;5.30;;;9.80;99.90;;;;;;5042730;28;20191;-64
2022/05/22 03:50:08;;;;;;;12.27;6.00;;;9.80;99.90;;;;;;5047037;28;20295;-64
2022/05/22 03:52:39;;;;;;;11.23;5.97;;;9.80;99.90;;;;;;5046028;28;20196;-64
2022/05/22 03:55:11;;;;;;;12.00;6.00;;;9.90;99.90;;;;;;5036771;28;20201;-64
2022/05/22 03:57:39;;;;;;;10.67;5.87;;;9.90;99.90;;;;;;5041939;28;20212;-64
2022/05/22 04:00:11;;;;;;;12.73;5.60;;;9.90;99.90;;;;;;5040468;28;20698;-64
2022/05/22 04:02:41;;;;;;;11.07;5.50;;;9.80;99.90;;;;;;5042537;28;20197;-64
2022/05/22 04:05:10;;;;;;;12.20;6.23;;;9.80;99.90;;;;;;5080348;28;20193;-64
2022/05/22 04:07:39;;;;;;;10.10;5.80;;;9.80;99.90;;;;;;5046041;28;20751;-64
2022/05/22 04:10:09;;;;;;;7.83;5.83;;;9.90;99.90;;;;;;5046440;28;20205;-64
2022/05/22 04:12:38;;;;;;;12.83;6.40;;;9.90;99.90;;;;;;5072373;28;20197;-64
2022/05/22 04:15:09;;;;;;;9.90;5.97;;;9.90;99.90;;;;;;5049737;28;20278;-64
2022/05/22 04:17:38;;;;;;;10.67;5.87;;;9.90;99.90;;;;;;5038976;28;20212;-64
2022/05/22 04:20:09;;;;;;;10.70;6.27;;;10.00;99.90;;;;;;5046855;28;20204;-64
2022/05/22 04:25:11;;;;;;;8.60;5.60;;;10.00;99.90;;;;;;5040604;28;20656;-64
2022/05/22 04:25:27;;;;;;;10.43;5.43;;;10.00;99.90;;;;;;5044908;28;20220;-65
2022/05/22 04:27:55;;;;;;;10.03;5.63;;;10.00;99.90;;;;;;5045894;28;20197;-64
2022/05/22 04:30:24;;;;;;;9.70;6.27;;;10.10;99.90;;;;;;5080287;28;20659;-64
2022/05/22 04:32:53;;;;;;;8.80;5.27;;;10.00;99.90;;;;;;5047174;28;20280;-64
2022/05/22 04:35:23;;;;;;;7.20;5.47;;;10.00;99.90;;;;;;5058449;28;20695;-64
2022/05/22 04:37:52;;;;;;;9.50;5.40;;;10.10;99.90;;;;;;5046385;28;20219;-64
2022/05/22 04:40:20;;;;;;;9.53;6.00;;;10.20;99.90;;;;;;5046637;28;20201;-64
2022/05/22 04:42:49;;;;;;;10.53;6.00;;;10.20;99.90;;;;;;5044333;28;20266;-64
2022/05/22 04:45:17;;;;;;;10.20;6.27;;;10.30;99.90;;;;;;5049015;28;20280;-64
2022/05/22 04:47:45;;;;;;;7.93;5.97;;;10.30;99.90;;;;;;5042967;28;20197;-65
2022/05/22 04:50:15;;;;;;;12.73;6.40;;;10.40;99.90;;;;;;5043541;28;20208;-64
2022/05/22 04:52:45;;;;;;;13.70;6.83;;;10.50;99.90;;;;;;5046292;28;20204;-64
2022/05/22 04:55:19;;;;;;;13.30;7.00;;;10.60;99.90;;;;;;5046210;28;20200;-64
2022/05/22 04:57:48;;;;;;;12.77;6.57;;;10.70;99.90;;;;;;5037711;28;20217;-64
2022/05/22 05:00:16;;;;;;;8.40;6.43;;;10.80;99.90;;;;;;5043930;28;20225;-64
2022/05/22 05:02:45;;;;;;;11.73;6.70;;;10.80;99.90;;;;;;5038786;28;20201;-64
2022/05/22 05:05:14;;;;;;;10.80;6.30;;;10.90;99.90;;;;;;5060544;28;20204;-64
2022/05/22 05:07:43;;;;;;;12.70;6.43;;;10.90;99.90;;;;;;5039310;28;20276;-64
2022/05/22 05:10:13;;;;;;;16.27;6.67;;;11.00;99.90;;;;;;5047355;28;20201;-64
2022/05/22 05:12:43;;;;;;;11.07;6.60;;;11.00;99.90;;;;;;5074137;28;20189;-64
2022/05/22 05:15:15;;;;;;;10.17;6.53;;;11.20;99.90;;;;;;5047861;28;20196;-64
2022/05/22 05:17:44;;;;;;;13.63;7.10;;;11.30;99.90;;;;;;5043785;28;20260;-64
2022/05/22 05:20:14;;;;;;;11.27;6.60;;;11.30;99.90;;;;;;5042845;28;22186;-64
2022/05/22 05:22:43;;;;;;;16.93;7.73;;;11.40;99.90;;;;;;5042507;28;20205;-64
2022/05/22 05:25:16;;;;;;;12.23;6.50;;;11.50;99.90;;;;;;5077745;28;20827;-64
2022/05/22 05:27:51;;;;;;;12.07;6.83;;;11.50;99.90;;;;;;5042358;28;20283;-64
2022/05/22 05:30:19;;;;;;;11.60;6.60;;;11.60;99.90;;;;;;5052311;28;20211;-64
2022/05/22 05:32:48;;;;;;;13.43;6.80;;;11.70;99.90;;;;;;5053402;28;20645;-64
2022/05/22 05:35:17;;;;;;;15.37;6.73;;;11.70;99.90;;;;;;5049566;28;20232;-64
2022/05/22 05:37:46;;;;;;;10.70;6.43;;;11.80;99.90;;;;;;5046467;28;20193;-64
2022/05/22 05:40:16;;;;;;;14.30;7.23;;;11.80;99.90;;;;;;5050511;28;20275;-64
2022/05/22 05:42:45;;;;;;;15.67;7.10;;;12.00;99.90;;;;;;5081024;28;20206;-64
2022/05/22 05:45:15;;;;;;;12.63;7.50;;;12.10;99.90;;;;;;5047855;28;20207;-64
2022/05/22 05:47:46;;;;;;;19.13;7.87;;;12.20;99.90;;;;;;5050170;28;20196;-64
2022/05/22 05:50:16;;;;;;;14.17;7.57;;;12.40;99.90;;;;;;5048081;28;20288;-64
2022/05/22 05:52:45;;;;;;;10.87;6.90;;;12.60;99.90;;;;;;5051201;28;20205;-64
2022/05/22 05:55:16;;;;;;;12.87;7.43;;;12.70;99.90;;;;;;5049111;28;20204;-64
2022/05/22 05:58:04;;;;;;;10.70;6.60;;;12.90;99.90;;;;;;5045332;28;20205;-64
2022/05/22 06:00:53;;;;;;;15.93;7.20;;;13.30;99.90;;;;;;5047758;28;20216;-65
2022/05/22 06:03:21;;;;;;;12.57;7.10;;;13.60;99.90;;;;;;5053263;28;20232;-65
2022/05/22 06:05:49;;;;;;;11.43;6.27;;;13.90;99.90;;;;;;5077819;28;20270;-64
2022/05/22 06:08:17;;;;;;;11.13;6.50;;;14.10;99.90;;;;;;5049519;28;20193;-65
2022/05/22 06:10:47;;;;;;;13.63;6.67;;;14.30;99.90;;;;;;5043788;28;20251;-64
2022/05/22 06:13:15;;;;;;;14.70;6.77;;;14.40;99.90;;;;;;5048368;28;20296;-64
2022/05/22 06:15:44;;;;;;;16.87;7.13;;;14.60;99.90;;;;;;5059414;28;20201;-64
2022/05/22 06:18:12;;;;;;;15.13;6.17;;;14.80;99.90;;;;;;5046599;28;20197;-64
2022/05/22 06:20:41;;;;;;;14.47;6.23;;;14.90;99.90;;;;;;5046829;28;20283;-64
2022/05/22 06:23:09;;;;;;;13.33;6.27;;;15.10;99.90;;;;;;5044279;28;20189;-64
2022/05/22 06:25:39;;;;;;;12.77;5.90;;;15.30;99.90;;;;;;5051486;28;20203;-64
2022/05/22 06:28:09;;;;;;;12.27;5.87;;;15.50;99.90;;;;;;5050437;28;20204;-64
2022/05/22 06:30:40;;;;;;;9.43;6.00;;;15.70;99.90;;;;;;5046109;28;20208;-64
2022/05/22 06:33:09;;;;;;;13.67;5.73;;;15.80;99.90;;;;;;5047820;28;20267;-64
2022/05/22 06:35:40;;;;;;;11.50;5.67;;;15.80;99.90;;;;;;5048763;28;20576;-64
2022/05/22 06:38:08;;;;;;;11.00;5.40;;;15.90;99.90;;;;;;5043725;28;20206;-64
2022/05/22 06:40:37;;;;;;;10.73;5.60;;;16.00;99.90;;;;;;5080510;28;20685;-64
2022/05/22 06:43:06;;;;;;;14.60;5.33;;;16.10;99.90;;;;;;5024939;28;20932;-64
2022/05/22 06:45:35;;;;;;;10.70;5.00;;;16.20;99.90;;;;;;5048789;28;20584;-64
2022/05/22 06:48:04;;;;;;;10.37;5.37;;;16.30;99.90;;;;;;5049313;28;20847;-64
2022/05/22 06:50:32;;;;;;;9.03;4.83;;;16.50;99.90;;;;;;5045792;28;20354;-64
2022/05/22 06:53:01;;;;;;;10.80;5.33;;;16.70;99.90;;;;;;5048372;28;20664;-64
2022/05/22 06:55:30;;;;;;;8.37;4.63;;;16.90;99.90;;;;;;5049652;28;20197;-64
2022/05/22 06:57:58;;;;;;;7.60;4.90;;;17.10;99.90;;;;;;5046947;28;20660;-64
2022/05/22 07:00:28;;;;;;;6.80;4.40;;;17.20;99.90;;;;;;5047921;28;20224;-64
2022/05/22 07:02:58;;;;;;;7.63;3.90;;;17.40;99.90;;;;;;5046066;28;20207;-64
2022/05/22 07:05:27;;;;;;;8.43;4.33;;;17.60;99.90;;;;;;5049031;28;20198;-64
2022/05/22 07:07:55;;;;;;;9.67;4.50;;;17.80;99.90;;;;;;5040644;28;20901;-64
2022/05/22 07:11:38;;;;;;;6.80;3.83;;;17.80;99.90;;;;;;5051830;28;20194;-65
2022/05/22 07:13:18;;;;;;;13.17;4.87;;;18.00;99.90;;;;;;5044917;28;20208;-65
2022/05/22 07:15:46;;;;;;;8.50;3.90;;;18.10;99.90;;;;;;5051246;28;20209;-65
2022/05/22 07:18:36;;;;;;;9.97;3.77;;;18.10;99.90;;;;;;5043266;28;20189;-64
2022/05/22 07:21:04;;;;;;;7.30;4.17;;;18.40;99.90;;;;;;5044208;28;20216;-64
2022/05/22 07:23:32;;;;;;;10.80;3.90;;;18.60;99.90;;;;;;5046659;28;20220;-64
2022/05/22 07:26:01;;;;;;;7.97;3.70;;;18.50;99.90;;;;;;5041591;28;20205;-64
2022/05/22 07:28:29;;;;;;;12.17;3.93;;;18.70;99.90;;;;;;5047241;28;20189;-65
2022/05/22 07:30:58;;;;;;;10.67;4.20;;;18.90;99.90;;;;;;5046194;28;20212;-64
2022/05/22 07:33:26;;;;;;;7.70;3.80;;;19.10;99.90;;;;;;5043472;28;20201;-64
2022/05/22 07:35:58;;;;;;;10.30;3.97;;;19.20;99.90;;;;;;5047718;28;20238;-64
2022/05/22 07:38:26;;;;;;;7.53;3.97;;;19.30;99.90;;;;;;5048207;28;20197;-64
2022/05/22 07:40:55;;;;;;;9.67;3.30;;;19.30;99.90;;;;;;5047678;28;20303;-64
2022/05/22 07:43:23;;;;;;;7.63;3.90;;;19.50;99.90;;;;;;5048367;28;20311;-64
2022/05/22 07:45:52;;;;;;;11.50;3.80;;;19.60;99.90;;;;;;5042884;28;20212;-64
2022/05/22 07:48:21;;;;;;;9.27;3.70;;;19.60;99.90;;;;;;5048215;28;20246;-64
2022/05/22 07:50:57;;;;;;;13.93;4.40;;;19.80;99.90;;;;;;5046592;28;20197;-64
2022/05/22 07:53:29;;;;;;;10.50;3.80;;;20.00;99.90;;;;;;5044802;28;20242;-64
2022/05/22 07:55:57;;;;;;;10.13;3.70;;;20.10;99.90;;;;;;5044807;28;20307;-65
2022/05/22 07:58:27;;;;;;;6.30;3.73;;;20.40;99.90;;;;;;5047919;28;20697;-64
2022/05/22 08:00:57;;;;;;;8.90;4.40;;;20.50;99.90;;;;;;5046642;28;20760;-64
2022/05/22 08:03:26;;;;;;;7.63;4.40;;;20.60;99.90;;;;;;5043508;28;20551;-64
2022/05/22 08:05:56;;;;;;;10.67;4.07;;;20.70;99.90;;;;;;5053280;28;20193;-64
2022/05/22 08:08:25;;;;;;;8.93;4.50;;;20.90;99.90;;;;;;5047538;28;20193;-64
2022/05/22 08:11:01;;;;;;;13.70;4.90;;;20.90;99.90;;;;;;5046836;28;20273;-65
2022/05/22 08:13:30;;;;;;;12.57;4.90;;;21.00;99.90;;;;;;5046854;28;20207;-65
2022/05/22 08:15:58;;;;;;;14.73;5.17;;;21.20;99.90;;;;;;5040507;28;20210;-64
2022/05/22 08:18:27;;;;;;;12.93;4.77;;;21.00;99.90;;;;;;5049064;28;20196;-65
2022/05/22 08:20:57;;;;;;;14.40;5.13;;;21.20;99.90;;;;;;5048729;28;20221;-65
2022/05/22 08:23:25;;;;;;;7.03;3.87;;;21.40;99.90;;;;;;5051536;28;20642;-64
2022/05/22 08:25:55;;;;;;;11.50;4.67;;;21.60;99.90;;;;;;5049690;28;20189;-65
2022/05/22 08:28:23;;;;;;;12.50;4.33;;;21.70;99.90;;;;;;5048661;28;20694;-65
2022/05/22 08:30:52;;;;;;;7.40;3.90;;;22.20;99.90;;;;;;5043254;28;20201;-65
2022/05/22 08:33:22;;;;;;;9.17;4.20;;;22.40;99.90;;;;;;5039055;28;20580;-65
2022/05/22 08:35:52;;;;;;;11.30;4.63;;;22.60;99.90;;;;;;5043763;28;20260;-65
2022/05/22 08:38:22;;;;;;;12.40;4.67;;;21.90;99.90;;;;;;5052880;28;20284;-65
2022/05/22 08:40:59;;;;;;;7.97;3.97;;;22.00;99.90;;;;;;5050315;28;20304;-65
2022/05/22 08:43:34;;;;;;;10.15;4.05;;;22.20;99.90;;;;;;5041723;28;20200;-65
2022/05/22 08:46:12;;;;;;;10.43;3.90;;;22.60;99.90;;;;;;5045668;28;20247;-65
2022/05/22 08:48:48;;;;;;;7.47;3.78;;;23.20;99.90;;;;;;5050255;28;20217;-65
2022/05/22 08:51:27;;;;;;;6.25;3.88;;;23.20;99.90;;;;;;5044565;28;20188;-65
2022/05/22 08:54:03;;;;;;;10.15;3.60;;;23.10;99.90;;;;;;5044008;28;20204;-65
2022/05/22 08:59:24;;;;;;;6.65;3.60;;;23.60;99.90;;;;;;5045398;28;20190;-65
2022/05/22 09:02:03;;;;;;;5.07;3.28;;;23.60;99.90;;;;;;5046552;28;20637;-65
2022/05/22 09:04:38;;;;;;;7.57;3.78;;;23.50;99.90;;;;;;5044823;28;20293;-65
2022/05/22 09:07:20;;;;;;;6.13;3.75;;;23.80;99.90;;;;;;5060322;28;20559;-65
2022/05/22 09:09:56;;;;;;;9.20;3.60;;;23.80;99.90;;;;;;5046382;28;20291;-64
2022/05/22 09:12:51;;;;;;;8.80;3.35;;;24.00;99.90;;;;;;5080117;28;20218;-64
2022/05/22 09:15:24;;;;;;;4.63;3.07;;;23.70;99.90;;;;;;5043141;28;20197;-65
2022/05/22 09:18:01;;;;;;;5.55;2.78;;;23.50;99.90;;;;;;5042164;28;20185;-65
2022/05/22 09:20:41;;;;;;;5.38;3.33;;;23.50;99.90;;;;;;5038939;28;20310;-64
2022/05/22 09:23:25;;;;;;;7.40;2.92;;;23.60;99.90;;;;;;5044437;28;20200;-65
2022/05/22 09:26:02;;;;;;;6.00;2.80;;;24.00;99.90;;;;;;5044873;28;20254;-64
2022/05/22 09:28:37;;;;;;;5.05;2.95;;;24.10;99.90;;;;;;5042570;28;20366;-65
2022/05/22 09:31:17;;;;;;;5.57;2.33;;;24.30;99.90;;;;;;5039914;28;20274;-65
2022/05/22 09:33:54;;;;;;;4.32;2.30;;;24.40;99.90;;;;;;5047044;28;20245;-65
2022/05/22 09:36:32;;;;;;;8.90;2.83;;;24.20;99.90;;;;;;5038886;28;20211;-66
2022/05/22 09:39:34;;;;;;;7.00;2.45;;;24.40;99.90;;;;;;5038435;28;20683;-66
2022/05/22 09:42:17;;;;;;;4.90;2.22;;;24.20;99.90;;;;;;5046439;28;20215;-65
2022/05/22 09:45:12;;;;;;;3.70;2.47;;;24.70;99.90;;;;;;5044638;28;20663;-66
2022/05/22 09:48:03;;;;;;;3.00;2.08;;;25.00;99.90;;;;;;5031526;28;20211;-65
2022/05/22 09:51:04;;;;;;;5.07;2.45;;;25.10;99.90;;;;;;5045144;28;20281;-65
2022/05/22 09:53:45;;;;;;;6.35;2.33;;;25.60;99.90;;;;;;5026201;28;20211;-66
2022/05/22 09:56:42;;;;;;;5.10;2.00;;;26.00;99.90;;;;;;5044239;28;20201;-65
2022/05/22 09:59:31;;;;;;;7.05;2.40;;;26.20;99.90;;;;;;5045066;28;20209;-65
2022/05/22 10:02:04;;;;;;;4.60;2.15;;;26.50;99.90;;;;;;5042999;28;20253;-66
2022/05/22 10:04:46;;;;;;;3.80;1.85;;;26.70;99.90;;;;;;5043155;28;20199;-65
2022/05/22 10:07:22;;;;;;;6.50;2.28;;;27.40;99.90;;;;;;5071561;28;20198;-65
2022/05/22 10:09:59;;;;;;;3.80;2.15;;;27.20;99.90;;;;;;5039173;28;20816;-65
2022/05/22 10:12:42;;;;;;;7.00;2.53;;;27.20;99.90;;;;;;5043721;28;20193;-65
2022/05/22 10:15:38;;;;;;;5.22;2.33;;;27.30;99.90;;;;;;5046745;28;20220;-65
2022/05/22 10:18:33;;;;;;;5.28;2.30;;;27.00;99.90;;;;;;5040998;28;20204;-65
2022/05/22 10:21:11;;;;;;;6.63;2.20;;;27.40;99.90;;;;;;5046142;28;20658;-65
2022/05/22 10:24:02;;;;;;;3.00;1.98;;;27.20;99.90;;;;;;5043230;28;20199;-66
2022/05/22 10:26:46;;;;;;;5.25;2.20;;;27.40;99.90;;;;;;5053032;28;20212;-65
2022/05/22 10:29:23;;;;;;;2.97;2.10;;;27.50;99.90;;;;;;5049531;28;20211;-65
2022/05/22 10:32:00;;;;;;;5.97;2.10;;;28.20;99.90;;;;;;5047969;28;20200;-65
2022/05/22 10:34:38;;;;;;;4.88;2.50;;;27.90;99.90;;;;;;5050907;28;20314;-64
2022/05/22 10:37:17;;;;;;;3.92;2.42;;;27.30;99.90;;;;;;5036881;28;20280;-65
2022/05/22 10:39:45;;;;;;;7.60;4.03;;;27.00;99.90;;;;;;5047138;28;20613;-65
2022/05/22 10:45:14;;;;;;;7.63;2.40;;;27.10;99.90;;;;;;5052010;28;20856;-65
2022/05/22 10:47:44;;;;;;;5.43;2.35;;;27.20;99.90;;;;;;5065079;28;20710;-65
2022/05/22 10:50:20;;;;;;;4.45;2.10;;;27.20;99.90;;;;;;5049685;28;20226;-65
2022/05/22 10:52:49;;;;;;;7.50;4.78;;;27.20;99.90;;;;;;5045899;28;20239;-65
2022/05/22 10:55:32;;;;;;;5.85;2.22;;;27.10;99.90;;;;;;5050698;28;20200;-65
2022/05/22 10:58:04;;;;;;;4.22;2.47;;;27.30;99.90;;;;;;5049297;28;20228;-66
2022/05/22 11:00:34;;;;;;;5.97;2.15;;;27.10;99.90;;;;;;5053929;28;20231;-65
2022/05/22 11:03:14;;;;;;;3.83;2.00;;;27.00;99.90;;;;;;5051199;28;20235;-65
2022/05/22 11:05:51;;;;;;;4.40;2.40;;;26.80;99.90;;;;;;5042862;28;20215;-65
2022/05/22 11:08:32;;;;;;;5.43;2.35;;;26.70;99.90;;;;;;5045831;28;20204;-65
2022/05/22 11:11:14;;;;;;;3.97;2.38;;;26.80;99.90;;;;;;5046863;28;20279;-65
2022/05/22 11:13:43;;;;;;;4.50;2.30;;;26.80;99.90;;;;;;5046203;28;20242;-66
2022/05/22 11:16:14;;;;;;;3.38;2.10;;;26.90;99.90;;;;;;5048629;28;20204;-66
2022/05/22 11:18:44;;;;;;;3.15;2.10;;;26.80;99.90;;;;;;5052624;28;20694;-66
2022/05/22 11:21:30;;;;;;;5.45;2.20;;;26.80;99.90;;;;;;5047506;28;20223;-66
2022/05/22 11:24:12;;;;;;;3.70;2.25;;;26.80;99.90;;;;;;5046092;28;20191;-66
2022/05/22 11:26:56;;;;;;;4.07;2.58;;;26.70;99.90;;;;;;5047181;28;20656;-66
2022/05/22 11:29:45;;;;;;;4.10;2.80;;;26.90;99.90;;;;;;5053294;28;20277;-66
2022/05/22 11:32:28;;;;;;;4.72;2.03;;;26.90;99.90;;;;;;5043694;28;20871;-66
2022/05/22 11:35:32;;;;;;;3.90;2.35;;;26.60;99.50;;;;;;5046637;28;20320;-66
2022/05/22 11:38:25;;;;;;;5.20;2.30;;;26.40;99.90;;;;;;5007558;28;20583;-65
2022/05/22 11:41:02;;;;;;;7.03;2.38;;;26.40;99.90;;;;;;5050835;28;20550;-65
2022/05/22 11:43:49;;;;;;;4.90;2.45;;;26.40;99.90;;;;;;5038238;28;20295;-66
2022/05/22 11:46:27;;;;;;;4.82;2.50;;;26.30;99.90;;;;;;5048340;28;20206;-65
2022/05/22 11:49:10;;;;;;;7.85;2.67;;;25.90;99.90;;;;;;5045827;28;20280;-66
2022/05/22 11:51:55;;;;;;;3.20;2.80;;;25.80;99.90;;;;;;5054676;28;20263;-66
2022/05/22 11:54:36;;;;;;;4.27;2.60;;;25.80;99.90;;;;;;5047654;28;20193;-66
2022/05/22 11:57:22;;;;;;;5.45;2.30;;;25.80;99.90;;;;;;5047654;28;20352;-66
2022/05/22 12:00:08;;;;;;;4.73;2.30;;;25.80;99.90;;;;;;5047000;28;20196;-66
2022/05/22 12:02:48;;;;;;;5.30;2.97;;;25.80;99.90;;;;;;5043729;28;20229;-65
2022/05/22 12:05:25;;;;;;;5.27;2.70;;;25.90;99.90;;;;;;5047250;28;20212;-65
2022/05/22 12:08:18;;;;;;;7.40;3.27;;;25.80;99.90;;;;;;5040481;28;20709;-66
2022/05/22 12:10:56;;;;;;;4.43;2.73;;;25.70;99.90;;;;;;5046002;28;20227;-66
2022/05/22 12:13:29;;;;;;;4.83;2.70;;;25.60;99.90;;;;;;5043853;28;20280;-66
2022/05/22 12:16:02;;;;;;;5.37;2.50;;;25.60;99.90;;;;;;5051236;28;20203;-65
2022/05/22 12:18:45;;;;;;;5.87;2.80;;;25.60;99.90;;;;;;5038506;28;20215;-66
2022/05/22 12:21:28;;;;;;;6.97;2.77;;;25.60;99.90;;;;;;5043860;28;20254;-65
2022/05/22 12:24:04;;;;;;;4.83;2.30;;;25.60;99.90;;;;;;5047942;28;20285;-64
2022/05/22 12:26:36;;;;;;;4.13;2.47;;;25.00;99.90;;;;;;5049814;28;20183;-65
2022/05/22 12:29:09;;;;;;;5.87;2.67;;;24.90;99.90;;;;;;5046642;28;20326;-65
2022/05/22 12:31:42;;;;;;;3.63;2.60;;;24.90;99.90;;;;;;5042117;28;20211;-65
2022/05/22 12:34:13;;;;;;;3.50;1.97;;;24.90;99.90;;;;;;5045379;28;20233;-65
2022/05/22 12:36:46;;;;;;;4.30;2.50;;;24.90;99.90;;;;;;5042914;28;20233;-67
2022/05/22 12:39:17;;;;;;;2.53;2.23;;;24.80;99.90;;;;;;5046818;28;20230;-67
2022/05/22 12:41:58;;;;;;;6.17;2.50;;;24.50;99.90;;;;;;5045924;28;20222;-67
2022/05/22 12:44:28;;;;;;;4.87;2.37;;;24.10;99.90;;;;;;5070789;28;20190;-67
2022/05/22 12:46:57;;;;;;;4.80;2.43;;;23.90;99.90;;;;;;5046887;28;20205;-67
2022/05/22 12:49:28;;;;;;;7.53;2.20;;;24.10;99.90;;;;;;5046679;28;20604;-67
2022/05/22 12:51:59;;;;;;;5.00;2.43;;;24.20;99.90;;;;;;5046746;28;20197;-67
2022/05/22 12:54:30;;;;;;;3.70;2.10;;;24.50;99.90;;;;;;5046514;28;20205;-70
2022/05/22 12:57:24;;;;;;;4.80;2.13;;;24.80;99.90;;;;;;5049074;28;20198;-68
2022/05/22 12:59:58;;;;;;;6.53;2.77;;;24.90;99.90;;;;;;5018564;28;21080;-68
2022/05/22 13:02:38;;;;;;;4.80;2.60;;;24.90;99.90;;;;;;5044273;28;20226;-68
2022/05/22 13:05:24;;;;;;;5.67;2.40;;;24.80;99.90;;;;;;5045427;28;20204;-68
2022/05/22 13:07:53;;;;;;;4.27;2.40;;;24.70;99.90;;;;;;5047228;28;20247;-68
2022/05/22 13:10:33;;;;;;;4.83;2.67;;;24.80;99.90;;;;;;5047211;28;20960;-68
2022/05/22 13:13:06;;;;;;;3.30;2.37;;;24.90;99.90;;;;;;5046722;28;20278;-67
2022/05/22 13:15:36;;;;;;;6.10;3.43;;;24.90;99.90;;;;;;5037815;28;20206;-68
2022/05/22 13:18:12;;;;;;;5.40;3.30;;;24.90;99.90;;;;;;5044760;28;20213;-68
2022/05/22 13:20:51;;;;;;;6.67;3.57;;;24.90;99.90;;;;;;5046403;28;20201;-68
2022/05/22 13:23:33;;;;;;;3.70;2.73;;;24.90;99.90;;;;;;5047032;28;20286;-68